createdAt,value
2014-08-21T00:00:57.614Z,65.42
2014-08-21T00:02:02.585Z,65.9
2014-08-21T00:03:07.274Z,65.08
2014-08-21T00:04:12.245Z,64.18
2014-08-21T00:05:16.934Z,64.45
2014-08-21T00:06:21.625Z,65.37
2014-08-21T00:07:26.300Z,64.14
2014-08-21T00:08:30.989Z,64.54
2014-08-21T00:09:35.960Z,65.7
2014-08-21T00:10:40.946Z,64.46
2014-08-21T00:11:45.636Z,64.5
2014-08-21T00:12:50.310Z,64.75
2014-08-21T00:13:54.999Z,64.93
2014-08-21T00:14:59.673Z,65.3
2014-08-21T00:16:04.659Z,65.33
2014-08-21T00:17:09.333Z,64.87
2014-08-21T00:18:14.320Z,64.97
2014-08-21T00:19:18.994Z,65.34
2014-08-21T00:20:23.683Z,65.84
2014-08-21T00:21:28.357Z,65.99
2014-08-21T00:22:33.343Z,65.52
2014-08-21T00:23:38.018Z,65.44
2014-08-21T00:24:42.692Z,65.59
2014-08-21T00:25:47.677Z,66.11
2014-08-21T00:26:52.368Z,65.49
2014-08-21T00:27:57.042Z,65.67
2014-08-21T00:29:02.012Z,65.96
2014-08-21T00:30:06.999Z,65.79
2014-08-21T00:31:11.970Z,65.46
2014-08-21T00:32:15.971Z,65.38
2014-08-21T00:33:20.942Z,65.83
2014-08-21T00:34:25.632Z,65.15
2014-08-21T00:35:30.603Z,64.95
2014-08-21T00:36:35.292Z,65.08
2014-08-21T00:37:40.263Z,65.07
2014-08-21T00:38:44.951Z,65.43
2014-08-21T00:39:49.626Z,65.37
2014-08-21T00:40:54.316Z,66.13
2014-08-21T00:41:58.302Z,65.32
2014-08-21T00:43:02.992Z,65.34
2014-08-21T00:44:07.666Z,66.33
2014-08-21T00:45:12.652Z,66.12
2014-08-21T00:46:17.326Z,66.16
2014-08-21T00:47:22.313Z,66.73
2014-08-21T00:48:27.284Z,66.12
2014-08-21T00:49:32.269Z,66.54
2014-08-21T00:50:36.943Z,66.76
2014-08-21T00:51:41.930Z,67.06
2014-08-21T00:52:46.901Z,66.77
2014-08-21T00:53:51.591Z,65.89
2014-08-21T00:54:56.279Z,67.29
2014-08-21T00:56:00.954Z,67.26
2014-08-21T00:57:05.643Z,67.82
2014-08-21T00:58:10.318Z,67.8
2014-08-21T00:59:15.304Z,67.37
2014-08-21T01:00:19.978Z,67.77
2014-08-21T01:01:24.683Z,66.85
2014-08-21T01:02:29.404Z,65.81
2014-08-21T01:03:34.109Z,66.17
2014-08-21T01:04:38.798Z,65.78
2014-08-21T01:05:43.785Z,66.13
2014-08-21T01:06:48.755Z,66.61
2014-08-21T01:07:53.743Z,66.41
2014-08-21T01:08:58.714Z,66.94
2014-08-21T01:10:03.403Z,67.11
2014-08-21T01:11:08.077Z,66.63
2014-08-21T01:12:13.063Z,66.77
2014-08-21T01:13:18.049Z,66.46
2014-08-21T01:14:22.724Z,65.98
2014-08-21T01:15:27.412Z,66.12
2014-08-21T01:16:32.087Z,66.68
2014-08-21T01:17:37.073Z,66.46
2014-08-21T01:18:42.059Z,66.23
2014-08-21T01:19:46.734Z,66.16
2014-08-21T01:20:51.423Z,65.74
2014-08-21T01:21:56.394Z,65.56
2014-08-21T01:23:01.382Z,65.17
2014-08-21T01:24:06.056Z,65.31
2014-08-21T01:25:11.041Z,64.98
2014-08-21T01:26:15.716Z,66.05
2014-08-21T01:27:20.406Z,65.74
2014-08-21T01:28:25.377Z,66.61
2014-08-21T01:29:30.066Z,66.62
2014-08-21T01:30:34.756Z,66.71
2014-08-21T01:31:39.445Z,66.32
2014-08-21T01:32:44.416Z,66.39
2014-08-21T01:33:49.106Z,66.28
2014-08-21T01:34:53.795Z,66.1
2014-08-21T01:35:58.469Z,66.53
2014-08-21T01:37:03.158Z,66.96
2014-08-21T01:38:07.832Z,66.02
2014-08-21T01:39:12.523Z,66.17
2014-08-21T01:40:17.195Z,65.95
2014-08-21T01:41:21.885Z,66.29
2014-08-21T01:42:26.560Z,66.35
2014-08-21T01:43:31.249Z,66.47
2014-08-21T01:44:35.923Z,66.75
2014-08-21T01:45:40.894Z,67.23
2014-08-21T01:46:45.583Z,66.65
2014-08-21T01:47:50.257Z,67
2014-08-21T01:48:54.930Z,67.46
2014-08-21T01:49:59.918Z,67.3
2014-08-21T01:51:04.591Z,67.56
2014-08-21T01:52:09.265Z,68.1
2014-08-21T01:53:13.955Z,68.08
2014-08-21T01:54:18.629Z,67.45
2014-08-21T01:55:23.318Z,67.77
2014-08-21T01:56:27.992Z,67.57
2014-08-21T01:57:33.275Z,67.65
2014-08-21T01:58:37.949Z,67.35
2014-08-21T01:59:42.623Z,67.02
2014-08-21T02:00:47.610Z,67.16
2014-08-21T02:01:51.611Z,67.07
2014-08-21T02:02:56.286Z,67.16
2014-08-21T02:04:00.959Z,67.34
2014-08-21T02:05:05.946Z,67.14
2014-08-21T02:06:10.636Z,66.43
2014-08-21T02:07:15.310Z,66.26
2014-08-21T02:08:19.999Z,66.36
2014-08-21T02:09:24.970Z,66.54
2014-08-21T02:10:29.660Z,66.61
2014-08-21T02:11:34.630Z,67.56
2014-08-21T02:12:39.320Z,67.56
2014-08-21T02:13:44.009Z,67.55
2014-08-21T02:14:48.699Z,66.73
2014-08-21T02:15:53.670Z,67.23
2014-08-21T02:16:57.672Z,67.56
2014-08-21T02:18:02.346Z,67.86
2014-08-21T02:19:07.019Z,67.1
2014-08-21T02:20:11.709Z,66.69
2014-08-21T02:21:16.384Z,66.83
2014-08-21T02:22:21.369Z,66.39
2014-08-21T02:23:26.340Z,66.05
2014-08-21T02:24:31.014Z,66.58
2014-08-21T02:25:35.704Z,66.24
2014-08-21T02:26:40.378Z,66.54
2014-08-21T02:27:45.365Z,66.36
2014-08-21T02:28:50.038Z,66.57
2014-08-21T02:29:55.025Z,66.31
2014-08-21T02:30:59.699Z,66.26
2014-08-21T02:32:04.685Z,67.26
2014-08-21T02:33:09.375Z,66.95
2014-08-21T02:34:14.048Z,66.51
2014-08-21T02:35:18.722Z,66.94
2014-08-21T02:36:23.413Z,67.13
2014-08-21T02:37:28.102Z,68.26
2014-08-21T02:38:32.775Z,68.54
2014-08-21T02:39:37.466Z,67.82
2014-08-21T02:40:42.139Z,67.74
2014-08-21T02:41:46.828Z,67.88
2014-08-21T02:42:51.503Z,66.96
2014-08-21T02:43:56.192Z,67.65
2014-08-21T02:45:00.866Z,67.75
2014-08-21T02:46:05.853Z,67.81
2014-08-21T02:47:10.528Z,68.06
2014-08-21T02:48:15.216Z,68.68
2014-08-21T02:49:19.890Z,67.85
2014-08-21T02:50:24.876Z,67.04
2014-08-21T02:51:29.847Z,66.7
2014-08-21T02:52:34.537Z,66.23
2014-08-21T02:53:39.210Z,66.81
2014-08-21T02:54:43.884Z,66.95
2014-08-21T02:55:48.872Z,66.49
2014-08-21T02:56:53.842Z,66.37
2014-08-21T02:57:57.844Z,66.49
2014-08-21T02:59:02.517Z,67.32
2014-08-21T03:00:07.504Z,67.52
2014-08-21T03:01:11.787Z,67.88
2014-08-21T03:02:16.477Z,67.94
2014-08-21T03:03:21.151Z,67.45
2014-08-21T03:04:25.826Z,67.03
2014-08-21T03:05:30.516Z,66.9
2014-08-21T03:06:35.190Z,67
2014-08-21T03:07:39.863Z,67.83
2014-08-21T03:08:44.850Z,67.9
2014-08-21T03:09:49.821Z,67.52
2014-08-21T03:10:54.493Z,67.33
2014-08-21T03:11:59.481Z,67.59
2014-08-21T03:13:04.155Z,67.47
2014-08-21T03:14:08.844Z,66.9
2014-08-21T03:15:13.518Z,67.53
2014-08-21T03:16:18.192Z,67.36
2014-08-21T03:17:22.881Z,67.06
2014-08-21T03:18:27.555Z,67.53
2014-08-21T03:19:32.542Z,66.67
2014-08-21T03:20:37.512Z,66.66
2014-08-21T03:21:42.202Z,66.79
2014-08-21T03:22:46.876Z,67.46
2014-08-21T03:23:51.550Z,66.95
2014-08-21T03:24:56.239Z,67.08
2014-08-21T03:26:01.226Z,66.94
2014-08-21T03:27:05.901Z,66.8
2014-08-21T03:28:10.888Z,66.69
2014-08-21T03:29:15.577Z,67.04
2014-08-21T03:30:20.251Z,66.6
2014-08-21T03:31:25.238Z,66.44
2014-08-21T03:32:29.911Z,67.27
2014-08-21T03:33:35.196Z,67.48
2014-08-21T03:34:39.869Z,67.15
2014-08-21T03:35:44.559Z,67.1
2014-08-21T03:36:49.233Z,67.26
2014-08-21T03:37:54.204Z,67.05
2014-08-21T03:38:58.893Z,67.29
2014-08-21T03:40:03.566Z,67.45
2014-08-21T03:41:08.256Z,66.86
2014-08-21T03:42:12.929Z,66.48
2014-08-21T03:43:17.604Z,66.44
2014-08-21T03:44:22.294Z,66.08
2014-08-21T03:45:26.968Z,66.53
2014-08-21T03:46:31.938Z,66.13
2014-08-21T03:47:36.628Z,66.36
2014-08-21T03:48:41.302Z,66.17
2014-08-21T03:49:46.585Z,66.67
2014-08-21T03:50:51.259Z,66.44
2014-08-21T03:51:55.933Z,66.53
2014-08-21T03:53:00.622Z,66.26
2014-08-21T03:54:05.296Z,66.68
2014-08-21T03:55:10.579Z,66.84
2014-08-21T03:56:15.254Z,66.48
2014-08-21T03:57:20.241Z,66.9
2014-08-21T03:58:24.914Z,66.89
2014-08-21T03:59:29.587Z,66.7
2014-08-21T04:00:34.261Z,66.88
2014-08-21T04:01:38.952Z,67.49
2014-08-21T04:02:43.625Z,66.58
2014-08-21T04:03:48.300Z,66.71
2014-08-21T04:04:53.583Z,66.43
2014-08-21T04:05:58.569Z,66.28
2014-08-21T04:07:03.243Z,66.4
2014-08-21T04:08:07.932Z,66.12
2014-08-21T04:09:12.606Z,65.86
2014-08-21T04:10:17.296Z,65.98
2014-08-21T04:11:21.970Z,66.01
2014-08-21T04:12:26.956Z,65.79
2014-08-21T04:13:31.630Z,65.22
2014-08-21T04:14:36.320Z,65.21
2014-08-21T04:15:41.290Z,65.17
2014-08-21T04:16:45.964Z,65.25
2014-08-21T04:17:50.654Z,65.3
2014-08-21T04:18:55.328Z,64.89
2014-08-21T04:20:00.315Z,64.99
2014-08-21T04:21:04.988Z,64.98
2014-08-21T04:22:09.662Z,66
2014-08-21T04:23:14.337Z,66.38
2014-08-21T04:24:19.025Z,66.27
2014-08-21T04:25:24.294Z,66.21
2014-08-21T04:26:28.968Z,66.43
2014-08-21T04:27:33.657Z,67.02
2014-08-21T04:28:38.331Z,67.41
2014-08-21T04:29:43.302Z,66.23
2014-08-21T04:30:48.288Z,66.13
2014-08-21T04:31:53.556Z,66.35
2014-08-21T04:32:58.542Z,66
2014-08-21T04:34:03.513Z,65.97
2014-08-21T04:35:08.202Z,65.69
2014-08-21T04:36:12.878Z,65.8
2014-08-21T04:37:17.552Z,65.6
2014-08-21T04:38:22.241Z,66.32
2014-08-21T04:39:26.915Z,66.98
2014-08-21T04:40:31.886Z,66.89
2014-08-21T04:41:36.576Z,67.31
2014-08-21T04:42:41.547Z,67.9
2014-08-21T04:43:46.220Z,67.36
2014-08-21T04:44:51.207Z,66.26
2014-08-21T04:45:55.897Z,65.79
2014-08-21T04:47:00.570Z,66.47
2014-08-21T04:48:05.244Z,66.57
2014-08-21T04:49:09.933Z,66.2
2014-08-21T04:50:14.905Z,66.56
2014-08-21T04:51:20.188Z,66.68
2014-08-21T04:52:24.877Z,66.72
2014-08-21T04:53:29.551Z,66.15
2014-08-21T04:54:34.851Z,65.81
2014-08-21T04:55:39.525Z,65.81
2014-08-21T04:56:44.214Z,65.94
2014-08-21T04:57:49.184Z,64.6
2014-08-21T04:58:53.874Z,65.08
2014-08-21T04:59:58.548Z,65.18
2014-08-21T05:01:03.831Z,66.27
2014-08-21T05:02:08.521Z,66.37
2014-08-21T05:03:13.195Z,65.57
2014-08-21T05:04:17.870Z,65.02
2014-08-21T05:05:22.558Z,65.48
2014-08-21T05:06:27.233Z,65.28
2014-08-21T05:07:32.218Z,65.95
2014-08-21T05:08:37.205Z,65.61
2014-08-21T05:09:41.880Z,65.31
2014-08-21T05:10:46.553Z,65.11
2014-08-21T05:11:51.243Z,65
2014-08-21T05:12:55.917Z,65.6
2014-08-21T05:14:00.592Z,66.05
2014-08-21T05:15:05.281Z,66.21
2014-08-21T05:16:09.954Z,66.24
2014-08-21T05:17:14.644Z,66.45
2014-08-21T05:18:19.614Z,66.43
2014-08-21T05:19:24.305Z,66.51
2014-08-21T05:20:28.979Z,66.24
2014-08-21T05:21:33.667Z,65.92
2014-08-21T05:22:38.342Z,64.6
2014-08-21T05:23:43.329Z,64.3
2014-08-21T05:24:48.002Z,63.13
2014-08-21T05:25:52.004Z,62.65
2014-08-21T05:26:56.678Z,61.97
2014-08-21T05:28:01.368Z,60.61
2014-08-21T05:29:06.042Z,57.62
2014-08-21T05:30:10.745Z,55.24
2014-08-21T05:31:15.456Z,52.59
2014-08-21T05:32:20.185Z,50.85
2014-08-21T05:33:24.895Z,49.05
2014-08-21T05:34:29.920Z,48.22
2014-08-21T05:35:34.636Z,48.15
2014-08-21T05:36:39.323Z,47.3
2014-08-21T05:37:44.028Z,45.98
2014-08-21T05:38:48.729Z,44.16
2014-08-21T05:39:53.419Z,43.66
2014-08-21T05:40:58.411Z,43.22
2014-08-21T05:42:03.105Z,42.77
2014-08-21T05:43:07.784Z,42.53
2014-08-21T05:44:12.776Z,41.78
2014-08-21T05:45:17.454Z,40.94
2014-08-21T05:46:22.146Z,40.28
2014-08-21T05:47:27.134Z,39.31
2014-08-21T05:48:31.811Z,39.06
2014-08-21T05:49:36.501Z,39.27
2014-08-21T05:50:41.490Z,38.29
2014-08-21T05:51:46.180Z,38.63
2014-08-21T05:52:51.168Z,37.35
2014-08-21T05:53:55.857Z,37.25
2014-08-21T05:55:00.548Z,36.77
2014-08-21T05:56:05.237Z,36.25
2014-08-21T05:57:10.224Z,36.69
2014-08-21T05:58:14.914Z,35.85
2014-08-21T05:59:19.900Z,35.53
2014-08-21T06:00:24.605Z,34.87
2014-08-21T06:01:29.296Z,34.6
2014-08-21T06:02:33.984Z,34.4
2014-08-21T06:03:38.675Z,33.85
2014-08-21T06:04:43.363Z,33.64
2014-08-21T06:05:48.053Z,33.58
2014-08-21T06:06:52.743Z,33.52
2014-08-21T06:07:57.729Z,32.85
2014-08-21T06:09:02.435Z,33.34
2014-08-21T06:10:07.124Z,33.19
2014-08-21T06:11:11.813Z,32.87
2014-08-21T06:12:16.503Z,31.9
2014-08-21T06:13:21.193Z,31.29
2014-08-21T06:14:25.882Z,31.43
2014-08-21T06:15:30.871Z,31.35
2014-08-21T06:16:35.560Z,31.78
2014-08-21T06:17:40.546Z,30.84
2014-08-21T06:18:45.236Z,31.19
2014-08-21T06:19:49.534Z,31.53
2014-08-21T06:20:54.225Z,31.07
2014-08-21T06:21:58.914Z,29.83
2014-08-21T06:23:03.603Z,29.98
2014-08-21T06:24:08.293Z,30.48
2014-08-21T06:25:12.983Z,29.98
2014-08-21T06:26:17.672Z,29.54
2014-08-21T06:27:22.377Z,28.6
2014-08-21T06:28:27.067Z,28.46
2014-08-21T06:29:32.053Z,28.04
2014-08-21T06:30:36.743Z,28.92
2014-08-21T06:31:40.745Z,28.11
2014-08-21T06:32:45.434Z,28.04
2014-08-21T06:33:50.420Z,27.77
2014-08-21T06:34:55.110Z,27.98
2014-08-21T06:36:00.113Z,27.96
2014-08-21T06:37:04.130Z,29.05
2014-08-21T06:38:08.819Z,28.86
2014-08-21T06:39:13.118Z,28.4
2014-08-21T06:40:18.120Z,27.79
2014-08-21T06:41:22.809Z,27.51
2014-08-21T06:42:27.810Z,27.9
2014-08-21T06:43:32.500Z,27.29
2014-08-21T06:44:37.189Z,27.73
2014-08-21T06:45:42.179Z,28.34
2014-08-21T06:46:47.165Z,27.86
2014-08-21T06:47:52.151Z,28.16
2014-08-21T06:48:56.841Z,26.9
2014-08-21T06:50:01.531Z,26.66
2014-08-21T06:51:06.220Z,27.02
2014-08-21T06:52:10.909Z,26.95
2014-08-21T06:53:15.598Z,26.74
2014-08-21T06:54:20.600Z,26.69
2014-08-21T06:55:25.586Z,27.47
2014-08-21T06:56:30.573Z,29.02
2014-08-21T06:57:35.262Z,29.94
2014-08-21T06:58:39.951Z,32.38
2014-08-21T06:59:44.954Z,34.75
2014-08-21T07:00:49.643Z,35.16
2014-08-21T07:01:54.350Z,36.85
2014-08-21T07:02:59.040Z,37.39
2014-08-21T07:04:04.025Z,38.2
2014-08-21T07:05:08.997Z,39.98
2014-08-21T07:06:13.686Z,42.23
2014-08-21T07:07:18.375Z,42.32
2014-08-21T07:08:23.361Z,42.85
2014-08-21T07:09:28.051Z,44.07
2014-08-21T07:10:33.037Z,44.19
2014-08-21T07:11:38.024Z,44.51
2014-08-21T07:12:43.291Z,44.72
2014-08-21T07:13:48.278Z,45.99
2014-08-21T07:14:53.264Z,45.91
2014-08-21T07:15:57.954Z,45.67
2014-08-21T07:17:02.627Z,45.98
2014-08-21T07:18:07.614Z,46.44
2014-08-21T07:19:12.305Z,46.61
2014-08-21T07:20:16.994Z,47.09
2014-08-21T07:21:22.262Z,48.05
2014-08-21T07:22:26.952Z,46.77
2014-08-21T07:23:31.641Z,47.96
2014-08-21T07:24:36.331Z,48.19
2014-08-21T07:25:41.301Z,47.89
2014-08-21T07:26:46.303Z,48.13
2014-08-21T07:27:50.977Z,48.61
2014-08-21T07:28:55.666Z,48.37
2014-08-21T07:30:00.340Z,48.99
2014-08-21T07:31:05.029Z,49.82
2014-08-21T07:32:10.297Z,48.42
2014-08-21T07:33:15.283Z,49.25
2014-08-21T07:34:20.270Z,49.34
2014-08-21T07:35:24.959Z,49.91
2014-08-21T07:36:29.948Z,49.96
2014-08-21T07:37:34.918Z,48.91
2014-08-21T07:38:39.608Z,48.99
2014-08-21T07:39:44.282Z,48.73
2014-08-21T07:40:49.268Z,49.37
2014-08-21T07:41:53.942Z,49.1
2014-08-21T07:42:58.632Z,48.28
2014-08-21T07:44:03.618Z,47.7
2014-08-21T07:45:08.307Z,47.7
2014-08-21T07:46:12.980Z,48.14
2014-08-21T07:47:17.670Z,48.31
2014-08-21T07:48:22.641Z,48.65
2014-08-21T07:49:27.330Z,48.74
2014-08-21T07:50:32.316Z,48.94
2014-08-21T07:51:37.008Z,48.48
2014-08-21T07:52:41.682Z,48.53
2014-08-21T07:53:46.668Z,48.15
2014-08-21T07:54:51.342Z,47.96
2014-08-21T07:55:56.032Z,48.15
2014-08-21T07:57:00.721Z,47.56
2014-08-21T07:58:05.395Z,47.43
2014-08-21T07:59:10.085Z,47.05
2014-08-21T08:00:14.758Z,47.4
2014-08-21T08:01:19.745Z,45.94
2014-08-21T08:02:24.434Z,44.69
2014-08-21T08:03:29.109Z,45.21
2014-08-21T08:04:33.798Z,45.27
2014-08-21T08:05:38.471Z,44.26
2014-08-21T08:06:43.755Z,44.93
2014-08-21T08:07:48.444Z,44.05
2014-08-21T08:08:53.416Z,41.82
2014-08-21T08:09:58.104Z,40.55
2014-08-21T08:11:03.091Z,41.66
2014-08-21T08:12:08.063Z,41.12
2014-08-21T08:13:12.751Z,41.39
2014-08-21T08:14:17.441Z,41.76
2014-08-21T08:15:22.131Z,42.59
2014-08-21T08:16:26.821Z,41.61
2014-08-21T08:17:31.807Z,42.89
2014-08-21T08:18:36.778Z,41.81
2014-08-21T08:19:41.466Z,42.06
2014-08-21T08:20:46.156Z,41.85
2014-08-21T08:21:51.143Z,41.42
2014-08-21T08:22:55.833Z,40.31
2014-08-21T08:24:00.819Z,40.33
2014-08-21T08:25:05.492Z,41.06
2014-08-21T08:26:10.182Z,40.1
2014-08-21T08:27:14.856Z,39.75
2014-08-21T08:28:19.546Z,41.95
2014-08-21T08:29:24.235Z,40.79
2014-08-21T08:30:28.925Z,41.47
2014-08-21T08:31:33.614Z,41.88
2014-08-21T08:32:37.913Z,42.18
2014-08-21T08:33:42.605Z,41.83
2014-08-21T08:34:47.278Z,41.93
2014-08-21T08:35:51.968Z,41.74
2014-08-21T08:36:56.657Z,42.04
2014-08-21T08:38:01.331Z,42.03
2014-08-21T08:39:06.020Z,41.6
2014-08-21T08:40:10.710Z,40.89
2014-08-21T08:41:15.384Z,41.69
2014-08-21T08:42:20.074Z,41.7
2014-08-21T08:43:24.763Z,42.48
2014-08-21T08:44:29.437Z,42.25
2014-08-21T08:45:34.142Z,42.73
2014-08-21T08:46:38.816Z,42
2014-08-21T08:47:43.506Z,41.4
2014-08-21T08:48:48.195Z,41.77
2014-08-21T08:49:52.868Z,41.46
2014-08-21T08:50:57.557Z,41.45
2014-08-21T08:52:02.232Z,42.29
2014-08-21T08:53:06.922Z,41.85
2014-08-21T08:54:11.595Z,41.77
2014-08-21T08:55:16.582Z,41.94
2014-08-21T08:56:21.272Z,42.17
2014-08-21T08:57:25.944Z,42.18
2014-08-21T08:58:30.634Z,42.99
2014-08-21T08:59:35.326Z,43.11
2014-08-21T09:00:40.000Z,43.54
2014-08-21T09:01:44.689Z,44.22
2014-08-21T09:02:49.379Z,43.83
2014-08-21T09:03:54.366Z,43.74
2014-08-21T09:04:59.054Z,43.48
2014-08-21T09:06:03.729Z,42.39
2014-08-21T09:07:08.418Z,42.76
2014-08-21T09:08:13.108Z,42.61
2014-08-21T09:09:17.782Z,42.68
2014-08-21T09:10:22.471Z,42.27
2014-08-21T09:11:27.442Z,42.18
2014-08-21T09:12:32.132Z,42.67
2014-08-21T09:13:37.102Z,41.75
2014-08-21T09:14:41.792Z,41.95
2014-08-21T09:15:46.481Z,42.68
2014-08-21T09:16:51.452Z,41.75
2014-08-21T09:17:56.142Z,41.99
2014-08-21T09:19:00.831Z,41.09
2014-08-21T09:20:05.505Z,39.95
2014-08-21T09:21:10.195Z,40.46
2014-08-21T09:22:15.181Z,40.71
2014-08-21T09:23:19.855Z,40.54
2014-08-21T09:24:24.841Z,40.42
2014-08-21T09:25:29.531Z,39.94
2014-08-21T09:26:34.517Z,41.69
2014-08-21T09:27:39.488Z,40.4
2014-08-21T09:28:44.194Z,40.96
2014-08-21T09:29:49.179Z,40.6
2014-08-21T09:30:53.869Z,41.12
2014-08-21T09:31:58.841Z,40.4
2014-08-21T09:33:03.826Z,39.46
2014-08-21T09:34:08.515Z,39.03
2014-08-21T09:35:13.205Z,39.38
2014-08-21T09:36:17.880Z,39.17
2014-08-21T09:37:22.570Z,39.27
2014-08-21T09:38:27.244Z,38.89
2014-08-21T09:39:31.934Z,39.3
2014-08-21T09:40:36.623Z,38.45
2014-08-21T09:41:41.313Z,38.81
2014-08-21T09:42:46.018Z,39.46
2014-08-21T09:43:50.692Z,39.63
2014-08-21T09:44:55.381Z,39.54
2014-08-21T09:46:00.055Z,39.93
2014-08-21T09:47:04.745Z,39.93
2014-08-21T09:48:09.419Z,39.48
2014-08-21T09:49:14.405Z,39.29
2014-08-21T09:50:19.094Z,39.6
2014-08-21T09:51:23.768Z,39.44
2014-08-21T09:52:28.458Z,39.43
2014-08-21T09:53:33.444Z,39.43
2014-08-21T09:54:38.431Z,38.39
2014-08-21T09:55:43.715Z,37.79
2014-08-21T09:56:48.404Z,38.01
2014-08-21T09:57:53.093Z,37.56
2014-08-21T09:58:57.767Z,37.45
2014-08-21T10:00:02.456Z,37.38
2014-08-21T10:01:07.147Z,37.81
2014-08-21T10:02:11.820Z,39.38
2014-08-21T10:03:16.510Z,38.03
2014-08-21T10:04:21.199Z,38.31
2014-08-21T10:05:26.186Z,37.97
2014-08-21T10:06:30.860Z,39.12
2014-08-21T10:07:35.549Z,39.5
2014-08-21T10:08:40.239Z,39.67
2014-08-21T10:09:44.913Z,39.01
2014-08-21T10:10:49.916Z,39.47
2014-08-21T10:11:54.901Z,39.07
2014-08-21T10:12:59.590Z,39.68
2014-08-21T10:14:04.577Z,39.95
2014-08-21T10:15:09.251Z,39.42
2014-08-21T10:16:13.941Z,39.12
2014-08-21T10:17:18.631Z,40.43
2014-08-21T10:18:23.304Z,41.09
2014-08-21T10:19:27.994Z,41.75
2014-08-21T10:20:32.668Z,39.14
2014-08-21T10:21:37.653Z,39.12
2014-08-21T10:22:42.327Z,40.61
2014-08-21T10:23:47.316Z,40.55
2014-08-21T10:24:51.988Z,42.15
2014-08-21T10:25:56.975Z,40.42
2014-08-21T10:27:01.664Z,40.71
2014-08-21T10:28:06.338Z,42.59
2014-08-21T10:29:11.325Z,41.94
2014-08-21T10:30:16.609Z,41.67
2014-08-21T10:31:21.282Z,41.63
2014-08-21T10:32:26.268Z,40.41
2014-08-21T10:33:30.958Z,41.48
2014-08-21T10:34:35.632Z,41.34
2014-08-21T10:35:40.618Z,41.7
2014-08-21T10:36:45.293Z,41.41
2014-08-21T10:37:49.981Z,41.55
2014-08-21T10:38:54.656Z,41.32
2014-08-21T10:39:59.362Z,42.15
2014-08-21T10:41:04.037Z,40.55
2014-08-21T10:42:08.727Z,40.21
2014-08-21T10:43:13.416Z,41.04
2014-08-21T10:44:18.089Z,41.31
2014-08-21T10:45:23.076Z,42.72
2014-08-21T10:46:28.063Z,40.48
2014-08-21T10:47:32.751Z,40.49
2014-08-21T10:48:37.426Z,40.17
2014-08-21T10:49:42.412Z,40.37
2014-08-21T10:50:47.399Z,40.81
2014-08-21T10:51:52.087Z,41.02
2014-08-21T10:52:57.075Z,40.05
2014-08-21T10:54:01.750Z,40.57
2014-08-21T10:55:07.032Z,40.19
2014-08-21T10:56:11.737Z,39.38
2014-08-21T10:57:16.426Z,40.33
2014-08-21T10:58:21.397Z,40.82
2014-08-21T10:59:26.088Z,40.02
2014-08-21T11:00:30.762Z,40.29
2014-08-21T11:01:35.450Z,41.03
2014-08-21T11:02:40.437Z,39.95
2014-08-21T11:03:45.110Z,40.2
2014-08-21T11:04:49.801Z,40.1
2014-08-21T11:05:54.772Z,40.92
2014-08-21T11:06:59.461Z,40.76
2014-08-21T11:08:04.151Z,40.28
2014-08-21T11:09:08.823Z,40.42
2014-08-21T11:10:13.811Z,40.03
2014-08-21T11:11:18.500Z,40.4
2014-08-21T11:12:23.174Z,39.73
2014-08-21T11:13:27.864Z,40.18
2014-08-21T11:14:32.538Z,41.04
2014-08-21T11:15:37.227Z,40.5
2014-08-21T11:16:42.198Z,40.39
2014-08-21T11:17:47.184Z,40.61
2014-08-21T11:18:51.873Z,39.86
2014-08-21T11:19:56.548Z,41.08
2014-08-21T11:21:01.237Z,40.59
2014-08-21T11:22:05.928Z,39.97
2014-08-21T11:23:10.617Z,41.93
2014-08-21T11:24:15.588Z,40.68
2014-08-21T11:25:20.309Z,40.88
2014-08-21T11:26:24.998Z,41.95
2014-08-21T11:27:30.281Z,42.46
2014-08-21T11:28:35.268Z,40.47
2014-08-21T11:29:40.254Z,40.11
2014-08-21T11:30:44.944Z,40.94
2014-08-21T11:31:49.617Z,40.72
2014-08-21T11:32:53.619Z,41.21
2014-08-21T11:33:58.309Z,41.52
2014-08-21T11:35:02.998Z,40.63
2014-08-21T11:36:07.689Z,40.07
2014-08-21T11:37:12.363Z,40.23
2014-08-21T11:38:17.645Z,42.29
2014-08-21T11:39:22.631Z,39.72
2014-08-21T11:40:27.305Z,39.59
2014-08-21T11:41:32.293Z,38.38
2014-08-21T11:42:37.262Z,39.19
2014-08-21T11:43:41.969Z,38.71
2014-08-21T11:44:46.641Z,38.63
2014-08-21T11:45:51.332Z,38.75
2014-08-21T11:46:56.006Z,39.34
2014-08-21T11:48:00.694Z,38.08
2014-08-21T11:49:05.384Z,38.33
2014-08-21T11:50:10.074Z,38.31
2014-08-21T11:51:14.763Z,38.67
2014-08-21T11:52:19.438Z,38.46
2014-08-21T11:53:24.424Z,39.49
2014-08-21T11:54:29.409Z,39.62
2014-08-21T11:55:34.100Z,38.51
2014-08-21T11:56:38.790Z,38.71
2014-08-21T11:57:43.481Z,39.42
2014-08-21T11:58:48.170Z,39.38
2014-08-21T11:59:52.860Z,39.2
2014-08-21T12:00:57.533Z,39.7
2014-08-21T12:02:02.222Z,39.3
2014-08-21T12:03:06.913Z,39.38
2014-08-21T12:04:11.898Z,39.79
2014-08-21T12:05:16.573Z,39.5
2014-08-21T12:06:21.263Z,38.83
2014-08-21T12:07:25.935Z,39.12
2014-08-21T12:08:30.625Z,39.61
2014-08-21T12:09:35.315Z,39.39
2014-08-21T12:10:40.021Z,39.77
2014-08-21T12:11:45.007Z,39.5
2014-08-21T12:12:49.681Z,40.29
2014-08-21T12:13:54.667Z,40
2014-08-21T12:14:59.341Z,39.65
2014-08-21T12:16:04.327Z,39.97
2014-08-21T12:17:09.017Z,40.56
2014-08-21T12:18:13.691Z,40.76
2014-08-21T12:19:18.380Z,39.89
2014-08-21T12:20:23.054Z,39.45
2014-08-21T12:21:27.744Z,40.19
2014-08-21T12:22:32.433Z,41.85
2014-08-21T12:23:37.107Z,40.6
2014-08-21T12:24:42.094Z,40.3
2014-08-21T12:25:46.784Z,40.22
2014-08-21T12:26:51.458Z,40.16
2014-08-21T12:27:56.147Z,40.92
2014-08-21T12:29:00.820Z,40.81
2014-08-21T12:30:05.511Z,41.24
2014-08-21T12:31:10.200Z,40.6
2014-08-21T12:32:14.873Z,40.65
2014-08-21T12:33:19.860Z,40.03
2014-08-21T12:34:24.831Z,40.81
2014-08-21T12:35:29.520Z,40.7
2014-08-21T12:36:34.210Z,40.58
2014-08-21T12:37:38.900Z,40.21
2014-08-21T12:38:43.589Z,39.58
2014-08-21T12:39:48.263Z,39.11
2014-08-21T12:40:53.546Z,39.8
2014-08-21T12:41:58.236Z,38.04
2014-08-21T12:43:03.222Z,40.87
2014-08-21T12:44:08.492Z,39.91
2014-08-21T12:45:13.494Z,38.42
2014-08-21T12:46:18.183Z,38.74
2014-08-21T12:47:22.873Z,40.03
2014-08-21T12:48:27.546Z,37.47
2014-08-21T12:49:32.235Z,37.56
2014-08-21T12:50:36.910Z,37.11
2014-08-21T12:51:41.600Z,37.31
2014-08-21T12:52:46.273Z,38.44
2014-08-21T12:53:50.963Z,38.26
2014-08-21T12:54:55.636Z,39.16
2014-08-21T12:56:00.342Z,38.21
2014-08-21T12:57:05.016Z,37.84
2014-08-21T12:58:09.705Z,38
2014-08-21T12:59:14.379Z,38.67
2014-08-21T13:00:19.069Z,37.83
2014-08-21T13:01:24.352Z,38.58
2014-08-21T13:02:29.026Z,37.32
2014-08-21T13:03:33.715Z,37.82
2014-08-21T13:04:38.405Z,37.01
2014-08-21T13:05:43.376Z,37.28
2014-08-21T13:06:48.082Z,38.28
2014-08-21T13:07:52.756Z,36.86
2014-08-21T13:08:57.444Z,38.06
2014-08-21T13:10:02.135Z,38.12
2014-08-21T13:11:06.823Z,37.8
2014-08-21T13:12:11.498Z,38.55
2014-08-21T13:13:16.484Z,37.45
2014-08-21T13:14:21.471Z,36.66
2014-08-21T13:15:26.159Z,37.28
2014-08-21T13:16:30.850Z,37.09
2014-08-21T13:17:35.523Z,36.32
2014-08-21T13:18:40.213Z,36.61
2014-08-21T13:19:44.902Z,37.41
2014-08-21T13:20:49.592Z,36.28
2014-08-21T13:21:54.282Z,36.54
2014-08-21T13:22:58.971Z,37.69
2014-08-21T13:24:03.956Z,36.62
2014-08-21T13:25:08.646Z,36.81
2014-08-21T13:26:13.322Z,35.97
2014-08-21T13:27:18.011Z,36.78
2014-08-21T13:28:22.701Z,37.57
2014-08-21T13:29:27.390Z,37.4
2014-08-21T13:30:32.377Z,37.6
2014-08-21T13:31:37.051Z,37.71
2014-08-21T13:32:41.741Z,37.09
2014-08-21T13:33:46.726Z,37.39
2014-08-21T13:34:51.401Z,38.14
2014-08-21T13:35:56.091Z,37.59
2014-08-21T13:37:01.077Z,37.7
2014-08-21T13:38:05.751Z,37.54
2014-08-21T13:39:10.738Z,38.41
2014-08-21T13:40:15.427Z,37.64
2014-08-21T13:41:20.102Z,38.95
2014-08-21T13:42:24.790Z,38.96
2014-08-21T13:43:29.480Z,39.49
2014-08-21T13:44:34.154Z,38.47
2014-08-21T13:45:38.843Z,38.5
2014-08-21T13:46:43.814Z,40.05
2014-08-21T13:47:48.801Z,40.77
2014-08-21T13:48:53.490Z,40.55
2014-08-21T13:49:58.179Z,40.58
2014-08-21T13:51:02.853Z,40.53
2014-08-21T13:52:07.841Z,40.98
2014-08-21T13:53:12.530Z,41.46
2014-08-21T13:54:17.501Z,41.15
2014-08-21T13:55:22.189Z,42.79
2014-08-21T13:56:26.880Z,42.26
2014-08-21T13:57:31.554Z,43.46